createdAt,value
2023-04-13T00:00:53.868Z,100.00
2023-04-13T00:03:22.253Z,100.00
2023-04-13T00:05:53.486Z,100.00
2023-04-13T00:08:24.696Z,100.00
2023-04-13T00:10:57.491Z,100.00
2023-04-13T00:13:25.636Z,100.00
2023-04-13T00:15:55.960Z,100.00
2023-04-13T00:18:25.588Z,100.00
2023-04-13T00:20:54.537Z,100.00
2023-04-13T00:23:22.678Z,100.00
2023-04-13T00:25:56.535Z,100.00
2023-04-13T00:28:25.608Z,100.00
2023-04-13T00:30:53.731Z,100.00
2023-04-13T00:33:22.156Z,100.00
2023-04-13T00:35:50.221Z,100.00
2023-04-13T00:38:18.362Z,100.00
2023-04-13T00:40:48.703Z,100.00
2023-04-13T00:43:17.028Z,100.00
2023-04-13T00:45:45.383Z,100.00
2023-04-13T00:48:20.355Z,100.00
2023-04-13T00:50:48.686Z,100.00
2023-04-13T00:53:17.310Z,100.00
2023-04-13T00:55:45.458Z,100.00
2023-04-13T00:58:14.708Z,100.00
2023-04-13T01:00:43.726Z,100.00
2023-04-13T01:03:14.186Z,100.00
2023-04-13T01:05:50.784Z,100.00
2023-04-13T01:09:11.129Z,100.00
2023-04-13T01:11:43.761Z,100.00
2023-04-13T01:14:34.033Z,100.00
2023-04-13T01:17:08.830Z,100.00
2023-04-13T01:20:12.327Z,100.00
2023-04-13T01:22:45.818Z,100.00
2023-04-13T01:25:31.848Z,100.00
2023-04-13T01:28:09.858Z,100.00
2023-04-13T01:30:39.727Z,100.00
2023-04-13T01:33:10.190Z,100.00
2023-04-13T01:35:39.660Z,100.00
2023-04-13T01:38:10.121Z,100.00
2023-04-13T01:40:41.267Z,100.00
2023-04-13T01:43:11.310Z,100.00
2023-04-13T01:46:01.908Z,100.00
2023-04-13T01:48:52.075Z,100.00
2023-04-13T01:51:45.425Z,100.00
2023-04-13T01:54:21.589Z,100.00
2023-04-13T01:56:50.358Z,100.00
2023-04-13T01:59:20.271Z,100.00
2023-04-13T02:01:48.910Z,100.00
2023-04-13T02:04:18.753Z,100.00
2023-04-13T02:06:48.385Z,100.00
2023-04-13T02:09:17.266Z,100.00
2023-04-13T02:11:46.255Z,100.00
2023-04-13T02:14:25.396Z,100.00
2023-04-13T02:16:58.077Z,100.00
2023-04-13T02:19:26.195Z,100.00
2023-04-13T02:21:57.583Z,100.00
2023-04-13T02:24:25.967Z,100.00
2023-04-13T02:26:56.804Z,100.00
2023-04-13T02:29:24.925Z,100.00
2023-04-13T02:31:54.386Z,100.00
2023-04-13T02:34:23.053Z,100.00
2023-04-13T02:36:51.532Z,100.00
2023-04-13T02:39:26.991Z,100.00
2023-04-13T02:41:58.047Z,100.00
2023-04-13T02:44:27.241Z,100.00
2023-04-13T02:46:58.460Z,100.00
2023-04-13T02:49:26.549Z,100.00
2023-04-13T02:52:12.557Z,100.00
2023-04-13T02:54:46.709Z,100.00
2023-04-13T02:57:15.294Z,100.00
2023-04-13T02:59:43.919Z,100.00
2023-04-13T03:02:17.383Z,100.00
2023-04-13T03:04:47.693Z,100.00
2023-04-13T03:07:17.335Z,100.00
2023-04-13T03:09:48.558Z,100.00
2023-04-13T03:12:17.746Z,100.00
2023-04-13T03:14:46.862Z,100.00
2023-04-13T03:17:19.182Z,100.00
2023-04-13T03:19:49.878Z,100.00
2023-04-13T03:22:19.910Z,100.00
2023-04-13T03:24:48.042Z,100.00
2023-04-13T03:27:26.266Z,100.00
2023-04-13T03:29:55.297Z,100.00
2023-04-13T03:32:23.720Z,100.00
2023-04-13T03:34:58.428Z,100.00
2023-04-13T03:37:32.698Z,100.00
2023-04-13T03:40:12.123Z,100.00
2023-04-13T03:42:48.852Z,100.00
2023-04-13T03:45:20.073Z,100.00
2023-04-13T03:47:48.526Z,100.00
2023-04-13T03:50:17.635Z,100.00
2023-04-13T03:52:46.852Z,100.00
2023-04-13T03:55:15.054Z,100.00
2023-04-13T03:57:47.745Z,100.00
2023-04-13T04:00:19.100Z,100.00
2023-04-13T04:02:59.605Z,100.00
2023-04-13T04:05:34.302Z,100.00
2023-04-13T04:08:08.128Z,100.00
2023-04-13T04:10:37.459Z,100.00
2023-04-13T04:13:06.191Z,100.00
2023-04-13T04:15:39.550Z,100.00
2023-04-13T04:18:09.715Z,100.00
2023-04-13T04:20:40.068Z,100.00
2023-04-13T04:23:11.234Z,100.00
2023-04-13T04:25:46.952Z,100.00
2023-04-13T04:28:18.290Z,100.00
2023-04-13T04:30:54.526Z,100.00
2023-04-13T04:33:23.819Z,100.00
2023-04-13T04:35:52.262Z,100.00
2023-04-13T04:38:26.319Z,100.00
2023-04-13T04:40:57.821Z,100.00
2023-04-13T04:43:27.284Z,100.00
2023-04-13T04:45:58.078Z,100.00
2023-04-13T04:48:27.391Z,100.00
2023-04-13T04:51:08.632Z,100.00
2023-04-13T04:53:38.382Z,100.00
2023-04-13T04:56:07.895Z,100.00
2023-04-13T04:58:51.744Z,100.00
2023-04-13T05:01:26.549Z,100.00
2023-04-13T05:04:01.774Z,100.00
2023-04-13T05:06:34.394Z,100.00
2023-04-13T05:09:06.900Z,100.00
2023-04-13T05:11:36.694Z,100.00
2023-04-13T05:14:05.773Z,100.00
2023-04-13T05:16:36.160Z,100.00
2023-04-13T05:19:12.769Z,100.00
2023-04-13T05:22:03.720Z,100.00
2023-04-13T05:24:39.015Z,100.00
2023-04-13T05:27:12.005Z,100.00
2023-04-13T05:29:41.115Z,100.00
2023-04-13T05:32:09.422Z,100.00
2023-04-13T05:34:38.393Z,100.00
2023-04-13T05:37:21.529Z,100.00
2023-04-13T05:39:50.281Z,100.00
2023-04-13T05:42:22.053Z,100.00
2023-04-13T05:44:52.442Z,100.00
2023-04-13T05:47:22.441Z,100.00
2023-04-13T05:49:52.528Z,100.00
2023-04-13T05:52:23.004Z,100.00
2023-04-13T05:54:51.566Z,100.00
2023-04-13T05:57:23.181Z,100.00
2023-04-13T05:59:53.519Z,100.00
2023-04-13T06:02:28.507Z,100.00
2023-04-13T06:04:57.911Z,100.00
2023-04-13T06:07:28.285Z,100.00
2023-04-13T06:09:56.496Z,100.00
2023-04-13T06:12:32.497Z,100.00
2023-04-13T06:15:02.288Z,100.00
2023-04-13T06:17:31.250Z,100.00
2023-04-13T06:19:59.560Z,100.00
2023-04-13T06:22:31.028Z,100.00
2023-04-13T06:24:59.568Z,100.00
2023-04-13T06:27:33.782Z,100.00
2023-04-13T06:30:02.691Z,100.00
2023-04-13T06:32:34.091Z,100.00
2023-04-13T06:35:03.445Z,100.00
2023-04-13T06:37:35.887Z,100.00
2023-04-13T06:40:12.239Z,100.00
2023-04-13T06:42:47.636Z,100.00
2023-04-13T06:45:30.841Z,100.00
2023-04-13T06:47:59.154Z,100.00
2023-04-13T06:50:27.477Z,100.00
2023-04-13T06:53:00.108Z,100.00
2023-04-13T06:55:29.196Z,100.00
2023-04-13T06:57:58.368Z,100.00
2023-04-13T07:00:30.150Z,100.00
2023-04-13T07:03:00.902Z,100.00
2023-04-13T07:05:29.935Z,100.00
2023-04-13T07:08:02.898Z,100.00
2023-04-13T07:10:31.521Z,100.00
2023-04-13T07:13:02.796Z,100.00
2023-04-13T07:15:32.820Z,100.00
2023-04-13T07:18:01.019Z,100.00
2023-04-13T07:20:34.959Z,100.00
2023-04-13T07:23:03.997Z,100.00
2023-04-13T07:25:34.394Z,100.00
2023-04-13T07:28:02.833Z,100.00
2023-04-13T07:30:31.350Z,100.00
2023-04-13T07:33:00.889Z,100.00
2023-04-13T07:35:29.440Z,100.00
2023-04-13T07:38:01.430Z,100.00
2023-04-13T07:40:29.818Z,100.00
2023-04-13T07:42:58.893Z,100.00
2023-04-13T07:45:31.857Z,100.00
2023-04-13T07:48:00.805Z,100.00
2023-04-13T07:50:29.469Z,100.00
2023-04-13T07:52:59.346Z,100.00
2023-04-13T07:55:28.395Z,100.00
2023-04-13T07:58:00.320Z,100.00
2023-04-13T08:00:28.739Z,100.00
2023-04-13T08:02:58.535Z,100.00
2023-04-13T08:05:31.843Z,100.00
2023-04-13T08:08:00.568Z,100.00
2023-04-13T08:10:29.135Z,100.00
2023-04-13T08:13:00.275Z,100.00
2023-04-13T08:15:29.597Z,100.00
2023-04-13T08:17:59.920Z,100.00
2023-04-13T08:20:30.179Z,100.00
2023-04-13T08:23:01.358Z,100.00
2023-04-13T08:25:30.239Z,100.00
2023-04-13T08:27:58.789Z,100.00
2023-04-13T08:30:33.183Z,100.00
2023-04-13T08:33:03.476Z,100.00
2023-04-13T08:35:32.401Z,100.00
2023-04-13T08:38:02.789Z,100.00
2023-04-13T08:40:36.229Z,100.00
2023-04-13T08:43:05.746Z,100.00
2023-04-13T08:45:41.685Z,100.00
2023-04-13T08:48:16.200Z,100.00
2023-04-13T08:50:45.473Z,100.00
2023-04-13T08:53:16.618Z,100.00
2023-04-13T08:55:48.484Z,100.00
2023-04-13T08:58:19.814Z,100.00
2023-04-13T09:00:50.273Z,100.00
2023-04-13T09:03:24.258Z,100.00
2023-04-13T09:05:57.207Z,100.00
2023-04-13T09:08:35.895Z,100.00
2023-04-13T09:11:05.696Z,100.00
2023-04-13T09:13:34.603Z,100.00
2023-04-13T09:16:03.347Z,100.00
2023-04-13T09:18:57.658Z,100.00
2023-04-13T09:21:41.196Z,100.00
2023-04-13T09:24:11.113Z,100.00
2023-04-13T09:26:48.192Z,100.00
2023-04-13T09:29:19.544Z,100.00
2023-04-13T09:31:48.513Z,100.00
2023-04-13T09:34:27.251Z,100.00
2023-04-13T09:37:00.997Z,100.00
2023-04-13T09:39:30.993Z,100.00
2023-04-13T09:41:59.566Z,100.00
2023-04-13T09:44:36.177Z,100.00
2023-04-13T09:47:07.087Z,100.00
2023-04-13T09:49:38.659Z,100.00
2023-04-13T09:52:23.303Z,100.00
2023-04-13T09:54:55.785Z,100.00
2023-04-13T09:57:28.555Z,100.00
2023-04-13T10:00:01.917Z,100.00
2023-04-13T10:02:45.599Z,100.00
2023-04-13T10:05:14.143Z,100.00
2023-04-13T10:07:45.769Z,99.83
2023-04-13T10:10:18.323Z,99.83
2023-04-13T10:12:48.680Z,97.16
2023-04-13T10:15:39.037Z,95.97
2023-04-13T10:18:35.686Z,89.22
2023-04-13T10:21:04.222Z,95.80
2023-04-13T10:23:33.712Z,96.44
2023-04-13T10:26:03.953Z,99.98
2023-04-13T10:28:50.330Z,100.00
2023-04-13T10:31:21.736Z,100.00
2023-04-13T10:33:50.592Z,100.00
2023-04-13T10:36:18.708Z,100.00
2023-04-13T10:38:47.683Z,100.00
2023-04-13T10:41:25.071Z,100.00
2023-04-13T10:44:03.004Z,100.00
2023-04-13T10:46:32.681Z,100.00
2023-04-13T10:49:01.623Z,100.00
2023-04-13T10:51:41.078Z,100.00
2023-04-13T10:54:10.216Z,100.00
2023-04-13T10:56:38.855Z,100.00
2023-04-13T10:59:08.295Z,100.00
2023-04-13T11:01:36.531Z,100.00
2023-04-13T11:04:07.844Z,100.00
2023-04-13T11:06:39.237Z,100.00
2023-04-13T11:09:15.199Z,100.00
2023-04-13T11:11:51.524Z,100.00
2023-04-13T11:14:26.940Z,100.00
2023-04-13T11:16:58.402Z,100.00
2023-04-13T11:19:27.094Z,100.00
2023-04-13T11:21:59.788Z,99.57
2023-04-13T11:24:34.370Z,99.66
2023-04-13T11:27:03.917Z,99.43
2023-04-13T11:29:32.296Z,96.79
2023-04-13T11:32:02.194Z,94.98
2023-04-13T11:34:30.979Z,100.00
2023-04-13T11:37:05.421Z,100.00
2023-04-13T11:39:35.126Z,100.00
2023-04-13T11:42:07.194Z,100.00
2023-04-13T11:44:38.154Z,100.00
2023-04-13T11:47:06.727Z,100.00
2023-04-13T11:49:48.393Z,100.00
2023-04-13T11:52:17.499Z,100.00
2023-04-13T11:54:46.013Z,100.00
2023-04-13T11:57:18.546Z,100.00
2023-04-13T11:59:48.113Z,100.00
2023-04-13T12:04:57.036Z,99.77
2023-04-13T12:07:26.638Z,99.53
2023-04-13T12:09:59.041Z,100.00
2023-04-13T12:12:51.443Z,100.00
2023-04-13T12:15:42.774Z,100.00
2023-04-13T12:18:15.700Z,100.00
2023-04-13T12:20:47.061Z,100.00
2023-04-13T12:23:24.612Z,100.00
2023-04-13T12:25:59.011Z,100.00
2023-04-13T12:28:34.934Z,94.35
2023-04-13T12:31:06.724Z,92.74
2023-04-13T12:33:36.804Z,93.37
2023-04-13T12:36:08.012Z,89.20
2023-04-13T12:38:38.063Z,89.66
2023-04-13T12:41:08.234Z,86.58
2023-04-13T12:43:36.442Z,82.90
2023-04-13T12:46:05.035Z,85.65
2023-04-13T12:48:33.217Z,87.41
2023-04-13T12:51:03.783Z,87.83
2023-04-13T12:53:37.081Z,85.49
2023-04-13T12:56:07.220Z,81.70
2023-04-13T12:58:36.163Z,83.01
2023-04-13T13:01:04.386Z,78.39
2023-04-13T13:03:38.915Z,79.91
2023-04-13T13:06:07.380Z,76.42
2023-04-13T13:08:37.709Z,78.64
2023-04-13T13:11:08.505Z,77.64
2023-04-13T13:13:37.755Z,79.41
2023-04-13T13:16:07.112Z,82.73
2023-04-13T13:18:49.758Z,87.02
2023-04-13T13:21:28.206Z,91.03
2023-04-13T13:23:56.334Z,92.63
2023-04-13T13:26:28.650Z,92.16
2023-04-13T13:29:01.887Z,94.73
2023-04-13T13:31:30.357Z,97.73
2023-04-13T13:33:58.707Z,99.62
2023-04-13T13:36:27.997Z,99.29
2023-04-13T13:38:59.883Z,99.80
2023-04-13T13:41:28.499Z,99.91
2023-04-13T13:43:56.588Z,100.00
2023-04-13T13:46:24.990Z,100.00
2023-04-13T13:48:54.307Z,100.00
2023-04-13T13:51:46.758Z,100.00
2023-04-13T13:54:16.124Z,100.00
2023-04-13T13:56:44.336Z,99.88
2023-04-13T13:59:12.909Z,100.00
2023-04-13T14:01:42.267Z,100.00
2023-04-13T14:04:11.760Z,100.00
2023-04-13T14:06:47.446Z,100.00
2023-04-13T14:09:18.979Z,100.00
2023-04-13T14:11:47.108Z,100.00
2023-04-13T14:14:21.804Z,100.00
2023-04-13T14:16:54.005Z,100.00
2023-04-13T14:19:22.266Z,100.00
2023-04-13T14:21:53.529Z,100.00
2023-04-13T14:24:26.353Z,100.00
2023-04-13T14:26:56.258Z,100.00
2023-04-13T14:29:24.460Z,100.00
2023-04-13T14:31:53.670Z,100.00
2023-04-13T14:34:22.257Z,100.00
2023-04-13T14:36:54.263Z,100.00
2023-04-13T14:39:26.105Z,100.00
2023-04-13T14:41:56.563Z,100.00
2023-04-13T14:44:25.537Z,100.00
2023-04-13T14:46:54.671Z,100.00
2023-04-13T14:49:23.506Z,100.00
2023-04-13T14:51:52.277Z,100.00
2023-04-13T14:54:24.318Z,100.00
2023-04-13T14:56:56.234Z,100.00
2023-04-13T14:59:25.317Z,100.00
2023-04-13T15:01:53.913Z,100.00
2023-04-13T15:04:23.621Z,100.00
2023-04-13T15:06:54.517Z,100.00
2023-04-13T15:09:23.246Z,100.00
2023-04-13T15:11:55.586Z,100.00
2023-04-13T15:14:23.757Z,100.00
2023-04-13T15:16:52.362Z,100.00
2023-04-13T15:19:20.808Z,100.00
2023-04-13T15:21:50.976Z,100.00
2023-04-13T15:24:21.275Z,100.00
2023-04-13T15:26:49.819Z,100.00
2023-04-13T15:29:18.578Z,100.00
2023-04-13T15:31:47.500Z,100.00
2023-04-13T15:34:17.096Z,100.00
2023-04-13T15:36:46.879Z,100.00
2023-04-13T15:39:15.965Z,100.00
2023-04-13T15:41:44.150Z,100.00
2023-04-13T15:44:12.628Z,100.00
2023-04-13T15:46:42.031Z,100.00
2023-04-13T15:49:11.606Z,100.00
2023-04-13T15:51:41.380Z,100.00
2023-04-13T15:54:10.130Z,100.00
2023-04-13T15:56:41.217Z,100.00
2023-04-13T15:59:09.891Z,100.00
2023-04-13T16:01:50.244Z,100.00
2023-04-13T16:04:19.437Z,100.00
2023-04-13T16:06:55.737Z,100.00
2023-04-13T16:09:35.151Z,100.00
2023-04-13T16:12:08.890Z,100.00
2023-04-13T16:14:39.042Z,100.00
2023-04-13T16:17:08.608Z,100.00
2023-04-13T16:19:40.959Z,100.00
2023-04-13T16:22:14.368Z,100.00
2023-04-13T16:24:43.215Z,100.00
2023-04-13T16:27:12.248Z,100.00
2023-04-13T16:29:42.469Z,100.00
2023-04-13T16:32:12.412Z,100.00
2023-04-13T16:34:43.006Z,100.00
2023-04-13T16:37:11.673Z,100.00
2023-04-13T16:39:45.786Z,100.00
2023-04-13T16:42:14.204Z,100.00
2023-04-13T16:44:44.886Z,100.00
2023-04-13T16:47:18.414Z,100.00
2023-04-13T16:49:46.679Z,100.00
2023-04-13T16:52:15.877Z,100.00
2023-04-13T16:54:47.371Z,100.00
2023-04-13T16:57:15.639Z,100.00
2023-04-13T16:59:46.731Z,100.00
2023-04-13T17:02:30.281Z,100.00
2023-04-13T17:04:59.506Z,100.00
2023-04-13T17:07:29.796Z,100.00
2023-04-13T17:10:18.551Z,100.00
2023-04-13T17:12:48.608Z,100.00
2023-04-13T17:15:22.626Z,100.00
2023-04-13T17:17:54.992Z,100.00
2023-04-13T17:20:24.054Z,100.00
2023-04-13T17:22:53.788Z,100.00
2023-04-13T17:25:25.239Z,100.00
2023-04-13T17:27:53.863Z,100.00
2023-04-13T17:30:22.925Z,100.00
2023-04-13T17:32:57.193Z,100.00
2023-04-13T17:35:27.301Z,100.00
2023-04-13T17:37:56.898Z,100.00
2023-04-13T17:40:33.117Z,100.00
2023-04-13T17:43:07.656Z,100.00
2023-04-13T17:45:38.486Z,100.00
2023-04-13T17:48:17.573Z,100.00
2023-04-13T17:50:50.502Z,100.00
2023-04-13T17:53:19.064Z,100.00
2023-04-13T17:55:47.652Z,100.00
2023-04-13T17:58:16.448Z,100.00
2023-04-13T18:00:46.710Z,100.00
2023-04-13T18:03:16.271Z,100.00
2023-04-13T18:05:45.840Z,100.00
2023-04-13T18:08:16.403Z,100.00
2023-04-13T18:10:46.655Z,100.00
2023-04-13T18:13:16.915Z,100.00
2023-04-13T18:15:48.693Z,100.00
2023-04-13T18:18:18.009Z,100.00
2023-04-13T18:20:50.282Z,100.00
2023-04-13T18:23:21.648Z,100.00
2023-04-13T18:25:51.415Z,100.00
2023-04-13T18:28:19.601Z,100.00
2023-04-13T18:30:50.216Z,100.00
2023-04-13T18:33:19.924Z,100.00
2023-04-13T18:35:48.148Z,100.00
2023-04-13T18:38:16.548Z,100.00
2023-04-13T18:40:45.956Z,100.00
2023-04-13T18:43:14.162Z,100.00
2023-04-13T18:45:45.330Z,100.00
2023-04-13T18:48:14.240Z,100.00
2023-04-13T18:50:42.940Z,100.00
2023-04-13T18:53:12.097Z,100.00
2023-04-13T18:55:41.183Z,100.00
2023-04-13T18:58:11.017Z,100.00
2023-04-13T19:00:40.195Z,100.00
2023-04-13T19:03:10.772Z,100.00
2023-04-13T19:05:39.126Z,100.00
2023-04-13T19:08:10.052Z,100.00
2023-04-13T19:10:39.838Z,100.00
2023-04-13T19:13:07.965Z,100.00
2023-04-13T19:15:36.537Z,100.00
2023-04-13T19:18:06.233Z,100.00
2023-04-13T19:20:34.416Z,100.00
2023-04-13T19:23:06.859Z,100.00
2023-04-13T19:25:36.123Z,100.00
2023-04-13T19:28:04.440Z,100.00
2023-04-13T19:30:33.585Z,100.00
2023-04-13T19:33:02.861Z,100.00
2023-04-13T19:35:31.793Z,100.00
2023-04-13T19:37:59.983Z,100.00
2023-04-13T19:40:33.185Z,100.00
2023-04-13T19:43:01.707Z,100.00
2023-04-13T19:45:31.119Z,100.00
2023-04-13T19:47:59.677Z,100.00
2023-04-13T19:50:29.476Z,100.00
2023-04-13T19:52:58.348Z,100.00
2023-04-13T19:55:28.455Z,100.00
2023-04-13T19:57:56.700Z,100.00
2023-04-13T20:00:29.599Z,100.00
2023-04-13T20:03:20.813Z,100.00
2023-04-13T20:05:49.539Z,100.00
2023-04-13T20:08:17.902Z,100.00
2023-04-13T20:10:46.061Z,100.00
2023-04-13T20:13:14.315Z,100.00
2023-04-13T20:15:42.699Z,100.00
2023-04-13T20:18:11.589Z,100.00
2023-04-13T20:20:42.550Z,100.00
2023-04-13T20:23:10.841Z,100.00
2023-04-13T20:25:38.979Z,100.00
2023-04-13T20:28:07.716Z,100.00
2023-04-13T20:30:36.207Z,100.00
2023-04-13T20:33:16.556Z,100.00
2023-04-13T20:35:44.892Z,100.00
2023-04-13T20:38:14.309Z,100.00
2023-04-13T20:40:45.966Z,100.00
2023-04-13T20:43:20.671Z,100.00
2023-04-13T20:45:48.930Z,100.00
2023-04-13T20:50:50.393Z,100.00
2023-04-13T20:53:18.497Z,100.00
2023-04-13T20:55:50.453Z,100.00
2023-04-13T20:58:18.619Z,100.00
2023-04-13T21:00:46.850Z,100.00
2023-04-13T21:03:16.874Z,100.00
2023-04-13T21:05:46.615Z,100.00
2023-04-13T21:08:14.766Z,100.00
2023-04-13T21:10:49.939Z,100.00
2023-04-13T21:13:18.304Z,100.00
2023-04-13T21:15:47.020Z,100.00
2023-04-13T21:18:15.355Z,100.00
2023-04-13T21:20:43.863Z,100.00
2023-04-13T21:23:11.958Z,100.00
2023-04-13T21:25:44.492Z,100.00
2023-04-13T21:28:12.673Z,100.00
2023-04-13T21:30:43.093Z,100.00
2023-04-13T21:33:12.267Z,100.00
2023-04-13T21:35:40.575Z,100.00
2023-04-13T21:38:08.741Z,100.00
2023-04-13T21:40:37.507Z,100.00
2023-04-13T21:43:05.906Z,100.00
2023-04-13T21:45:34.277Z,100.00
2023-04-13T21:48:02.872Z,100.00
2023-04-13T21:50:31.078Z,100.00
2023-04-13T21:53:00.848Z,100.00
2023-04-13T21:55:28.990Z,100.00
2023-04-13T21:57:57.297Z,100.00
2023-04-13T22:00:25.407Z,100.00
2023-04-13T22:02:55.603Z,100.00
2023-04-13T22:05:23.962Z,100.00
2023-04-13T22:07:54.800Z,100.00
2023-04-13T22:10:23.542Z,100.00
2023-04-13T22:12:51.640Z,100.00
2023-04-13T22:15:22.748Z,100.00
2023-04-13T22:17:52.792Z,100.00
2023-04-13T22:20:21.799Z,100.00
2023-04-13T22:22:49.854Z,100.00
2023-04-13T22:25:18.178Z,100.00
2023-04-13T22:27:46.293Z,100.00
2023-04-13T22:30:16.650Z,100.00
2023-04-13T22:32:45.635Z,100.00
2023-04-13T22:35:14.434Z,100.00
2023-04-13T22:37:43.822Z,100.00
2023-04-13T22:40:12.165Z,100.00
2023-04-13T22:42:40.490Z,100.00
2023-04-13T22:45:09.143Z,100.00
2023-04-13T22:47:37.902Z,100.00
2023-04-13T22:50:06.605Z,100.00
2023-04-13T22:52:37.697Z,100.00
2023-04-13T22:55:06.423Z,100.00
2023-04-13T22:57:35.281Z,100.00
2023-04-13T23:00:05.822Z,100.00
2023-04-13T23:02:36.140Z,100.00
2023-04-13T23:05:04.496Z,100.00
2023-04-13T23:07:32.672Z,100.00
2023-04-13T23:10:01.234Z,100.00
2023-04-13T23:12:29.415Z,100.00
2023-04-13T23:14:57.530Z,100.00
2023-04-13T23:17:29.488Z,100.00
2023-04-13T23:19:58.915Z,100.00
2023-04-13T23:22:28.185Z,100.00
2023-04-13T23:24:56.386Z,100.00
2023-04-13T23:27:24.741Z,100.00
2023-04-13T23:29:52.811Z,100.00
2023-04-13T23:32:21.594Z,100.00
2023-04-13T23:34:51.226Z,100.00
2023-04-13T23:37:21.196Z,100.00
2023-04-13T23:39:50.468Z,100.00
2023-04-13T23:42:18.653Z,100.00
2023-04-13T23:44:49.902Z,100.00
2023-04-13T23:47:18.317Z,100.00
2023-04-13T23:49:46.970Z,100.00
2023-04-13T23:52:15.101Z,100.00
2023-04-13T23:54:43.520Z,100.00
2023-04-13T23:57:12.846Z,100.00
2023-04-13T23:59:42.751Z,100.00
